Time,TemperatureF,DewpointF,PressureIn,WindDirection,WindDirectionDegrees,WindSpeedMPH,WindSpeedGustMPH,Humidity,HourlyPrecipIn,Conditions,Clouds,dailyrainin,SoftwareType,DateUTC
2013-10-13 00:02:00,43.7,32.3,27.37,North,0,3.5,4.0,64,0.00,CLR,SCT,0.00,WeatherDisplay:10.37,2013-10-13 07:02:00,
2013-10-13 00:07:00,43.7,32.3,27.37,North,0,3.5,4.0,64,0.00,CLR,SCT,0.00,WeatherDisplay:10.37,2013-10-13 07:07:00,
2013-10-13 00:12:00,43.7,32.3,27.37,North,0,3.5,3.6,64,0.00,CLR,SCT,0.00,WeatherDisplay:10.37,2013-10-13 07:12:00,
2013-10-13 00:17:00,43.7,32.3,27.37,North,0,3.5,3.6,64,0.00,CLR,SCT,0.00,WeatherDisplay:10.37,2013-10-13 07:17:00,
2013-10-13 00:22:00,43.7,32.3,27.37,North,0,3.5,3.6,64,0.00,CLR,SCT,0.00,WeatherDisplay:10.37,2013-10-13 07:22:00,
2013-10-13 00:27:00,43.7,32.3,27.37,North,0,3.5,3.6,64,0.00,CLR,SCT,0.00,WeatherDisplay:10.37,2013-10-13 07:27:00,
2013-10-13 00:32:00,43.7,32.3,27.37,North,0,3.5,3.6,64,0.00,CLR,SCT,0.00,WeatherDisplay:10.37,2013-10-13 07:32:00,
2013-10-13 00:37:00,43.7,32.3,27.37,North,0,3.5,3.6,64,0.00,CLR,SCT,0.00,WeatherDisplay:10.37,2013-10-13 07:37:00,
2013-10-13 00:42:00,43.7,32.3,27.37,North,0,3.5,3.6,64,0.00,CLR,SCT,0.00,WeatherDisplay:10.37,2013-10-13 07:42:00,
2013-10-13 00:47:00,43.7,32.3,27.37,North,0,3.5,3.6,64,0.00,CLR,SCT,0.00,WeatherDisplay:10.37,2013-10-13 07:47:00,
2013-10-13 00:52:00,43.7,32.3,27.37,North,0,3.5,3.5,64,0.00,CLR,SCT,0.00,WeatherDisplay:10.37,2013-10-13 07:52:00,
2013-10-13 00:57:00,43.7,32.3,27.37,North,0,5.8,5.8,64,0.00,CLR,SCT,0.00,WeatherDisplay:10.37,2013-10-13 07:57:00,
2013-10-13 01:02:00,43.3,34.2,27.37,North,0,5.8,5.8,70,0.00,CLR,SCT,0.00,WeatherDisplay:10.37,2013-10-13 08:02:00,
2013-10-13 01:07:00,43.3,34.2,27.37,North,0,5.8,5.8,70,0.00,CLR,SCT,0.00,WeatherDisplay:10.37,2013-10-13 08:07:00,
2013-10-13 01:13:00,43.3,34.2,27.37,North,0,5.8,5.8,70,0.00,CLR,SCT,0.00,WeatherDisplay:10.37,2013-10-13 08:13:00,
2013-10-13 01:18:00,43.3,34.2,27.37,North,0,3.5,3.6,70,0.00,CLR,SCT,0.00,WeatherDisplay:10.37,2013-10-13 08:18:00,
2013-10-13 01:23:00,43.3,34.2,27.37,North,0,3.5,3.6,70,0.00,CLR,SCT,0.00,WeatherDisplay:10.37,2013-10-13 08:23:00,
2013-10-13 01:28:00,43.3,34.2,27.37,North,0,3.5,3.6,70,0.00,CLR,SCT,0.00,WeatherDisplay:10.37,2013-10-13 08:28:00,
2013-10-13 01:33:00,43.3,34.2,27.37,North,0,3.5,3.6,70,0.00,CLR,SCT,0.00,WeatherDisplay:10.37,2013-10-13 08:33:00,
2013-10-13 01:38:00,43.3,34.2,27.37,North,0,3.5,3.6,70,0.00,CLR,SCT,0.00,WeatherDisplay:10.37,2013-10-13 08:38:00,
2013-10-13 01:43:00,43.3,34.2,27.37,North,0,3.5,3.6,70,0.00,CLR,SCT,0.00,WeatherDisplay:10.37,2013-10-13 08:43:00,
2013-10-13 01:48:00,43.3,34.2,27.37,North,0,3.5,3.6,70,0.00,CLR,SCT,0.00,WeatherDisplay:10.37,2013-10-13 08:48:00,
2013-10-13 01:53:00,43.3,34.2,27.37,North,0,3.5,3.6,70,0.00,CLR,SCT,0.00,WeatherDisplay:10.37,2013-10-13 08:53:00,
2013-10-13 01:58:00,43.3,34.2,27.37,North,0,3.5,3.6,70,0.00,CLR,SCT,0.00,WeatherDisplay:10.37,2013-10-13 08:58:00,
2013-10-13 02:03:00,43.3,34.2,27.37,North,0,3.5,3.6,70,0.00,CLR,SCT,0.00,WeatherDisplay:10.37,2013-10-13 09:03:00,
2013-10-13 02:08:00,43.3,34.2,27.37,North,0,3.5,3.6,70,0.00,CLR,SCT,0.00,WeatherDisplay:10.37,2013-10-13 09:08:00,
2013-10-13 02:13:00,43.3,34.2,27.37,North,0,3.5,3.6,70,0.00,CLR,SCT,0.00,WeatherDisplay:10.37,2013-10-13 09:13:00,
2013-10-13 02:18:00,43.3,34.2,27.37,North,0,3.5,3.6,70,0.00,CLR,SCT,0.00,WeatherDisplay:10.37,2013-10-13 09:18:00,
2013-10-13 02:23:00,43.3,34.2,27.37,North,0,3.5,3.6,70,0.00,CLR,SCT,0.00,WeatherDisplay:10.37,2013-10-13 09:23:00,
2013-10-13 02:28:00,43.3,34.2,27.37,North,0,3.5,3.6,70,0.00,CLR,SCT,0.00,WeatherDisplay:10.37,2013-10-13 09:28:00,
2013-10-13 02:33:00,43.3,34.2,27.37,North,0,3.5,3.6,70,0.00,CLR,SCT,0.00,WeatherDisplay:10.37,2013-10-13 09:33:00,
2013-10-13 02:38:00,43.2,34.4,27.37,North,0,3.5,3.6,71,0.00,CLR,SCT,0.00,WeatherDisplay:10.37,2013-10-13 09:38:00,
2013-10-13 02:43:00,43.2,34.4,27.37,North,0,3.5,0.0,71,0.00,CLR,SCT,0.00,WeatherDisplay:10.37,2013-10-13 09:43:00,
2013-10-13 02:48:00,43.2,34.4,27.37,North,0,3.5,3.5,71,0.00,CLR,SCT,0.00,WeatherDisplay:10.37,2013-10-13 09:48:00,
2013-10-13 02:53:00,43.2,34.4,27.37,North,0,2.3,2.3,71,0.00,CLR,SCT,0.00,WeatherDisplay:10.37,2013-10-13 09:53:00,
2013-10-13 02:58:00,43.2,34.4,27.37,North,0,2.3,2.3,71,0.00,CLR,SCT,0.00,WeatherDisplay:10.37,2013-10-13 09:58:00,
2013-10-13 03:03:00,43.2,34.4,27.37,North,0,2.3,2.3,71,0.00,CLR,SCT,0.00,WeatherDisplay:10.37,2013-10-13 10:03:00,
2013-10-13 03:08:00,43.2,34.4,27.37,North,0,2.3,2.3,71,0.00,CLR,SCT,0.00,WeatherDisplay:10.37,2013-10-13 10:08:00,
2013-10-13 03:13:00,43.2,34.4,27.37,North,0,2.3,2.3,71,0.00,CLR,SCT,0.00,WeatherDisplay:10.37,2013-10-13 10:13:00,
2013-10-13 03:18:00,43.2,34.4,27.37,North,0,2.3,3.1,71,0.00,CLR,SCT,0.00,WeatherDisplay:10.37,2013-10-13 10:18:00,
2013-10-13 03:23:00,43.2,34.4,27.37,North,0,3.5,3.5,71,0.00,CLR,SCT,0.00,WeatherDisplay:10.37,2013-10-13 10:23:00,
2013-10-13 03:28:00,43.2,34.4,27.37,WSW,241,3.5,3.5,71,0.00,CLR,SCT,0.00,WeatherDisplay:10.37,2013-10-13 10:28:00,
2013-10-13 03:33:00,43.2,34.4,27.37,North,0,3.5,3.5,71,0.00,CLR,SCT,0.00,WeatherDisplay:10.37,2013-10-13 10:33:00,
2013-10-13 03:38:00,43.2,34.4,27.37,North,0,3.5,3.5,71,0.00,CLR,SCT,0.00,WeatherDisplay:10.37,2013-10-13 10:38:00,
2013-10-13 03:43:00,43.2,34.4,27.37,North,0,3.5,3.5,71,0.00,CLR,SCT,0.00,WeatherDisplay:10.37,2013-10-13 10:43:00,
2013-10-13 03:48:00,43.0,34.9,27.37,North,0,3.5,3.5,73,0.00,CLR,SCT,0.00,WeatherDisplay:10.37,2013-10-13 10:48:00,
2013-10-13 03:53:00,43.0,34.9,27.37,North,0,4.6,4.9,73,0.00,CLR,SCT,0.00,WeatherDisplay:10.37,2013-10-13 10:53:00,
2013-10-13 03:58:00,43.0,34.9,27.37,North,0,4.6,4.9,73,0.00,CLR,SCT,0.00,WeatherDisplay:10.37,2013-10-13 10:58:00,
2013-10-13 04:03:00,43.0,34.9,27.37,North,0,4.6,4.6,73,0.00,CLR,SCT,0.00,WeatherDisplay:10.37,2013-10-13 11:03:00,
2013-10-13 04:08:00,43.0,34.9,27.37,North,0,3.5,3.5,73,0.00,CLR,SCT,0.00,WeatherDisplay:10.37,2013-10-13 11:08:00,
2013-10-13 04:13:00,43.0,34.9,27.37,North,0,0.0,0.0,73,0.00,CLR,SCT,0.00,WeatherDisplay:10.37,2013-10-13 11:13:00,
2013-10-13 04:18:00,43.0,34.9,27.37,North,0,0.0,0.0,73,0.00,CLR,SCT,0.00,WeatherDisplay:10.37,2013-10-13 11:18:00,
2013-10-13 04:23:00,43.0,34.9,27.37,North,0,3.5,4.0,73,0.00,CLR,SCT,0.00,WeatherDisplay:10.37,2013-10-13 11:23:00,
2013-10-13 04:28:00,43.0,34.9,27.37,North,0,3.5,4.0,73,0.00,CLR,SCT,0.00,WeatherDisplay:10.37,2013-10-13 11:28:00,
2013-10-13 04:33:00,43.0,34.9,27.37,North,0,3.5,4.0,73,0.00,CLR,SCT,0.00,WeatherDisplay:10.37,2013-10-13 11:33:00,
2013-10-13 04:38:00,43.0,34.9,27.37,North,0,3.5,4.0,73,0.00,CLR,SCT,0.00,WeatherDisplay:10.37,2013-10-13 11:38:00,
2013-10-13 04:43:00,43.0,34.9,27.40,North,0,3.5,3.5,73,0.00,CLR,SCT,0.00,WeatherDisplay:10.37,2013-10-13 11:43:00,
2013-10-13 04:48:00,43.0,34.9,27.40,North,0,3.5,3.5,73,0.00,CLR,SCT,0.00,WeatherDisplay:10.37,2013-10-13 11:48:00,
2013-10-13 04:53:00,43.0,34.9,27.40,North,0,3.5,3.5,73,0.00,CLR,SCT,0.00,WeatherDisplay:10.37,2013-10-13 11:53:00,
2013-10-13 04:58:00,43.0,34.9,27.40,North,0,3.5,3.6,73,0.00,CLR,SCT,0.00,WeatherDisplay:10.37,2013-10-13 11:58:00,
2013-10-13 05:03:00,43.0,34.9,27.40,North,0,3.5,3.6,73,0.00,CLR,SCT,0.00,WeatherDisplay:10.37,2013-10-13 12:03:00,
2013-10-13 05:08:00,43.0,34.9,27.40,North,0,5.8,5.8,73,0.00,CLR,SCT,0.00,WeatherDisplay:10.37,2013-10-13 12:08:00,
2013-10-13 05:13:00,43.0,34.9,27.40,North,0,5.8,5.8,73,0.00,CLR,SCT,0.00,WeatherDisplay:10.37,2013-10-13 12:13:00,
2013-10-13 05:18:00,43.0,34.9,27.40,North,0,5.8,5.8,73,0.00,CLR,SCT,0.00,WeatherDisplay:10.37,2013-10-13 12:18:00,
2013-10-13 05:23:00,43.0,34.9,27.40,North,0,5.8,5.8,73,0.00,CLR,SCT,0.00,WeatherDisplay:10.37,2013-10-13 12:23:00,
2013-10-13 05:28:00,43.0,34.9,27.40,North,0,5.8,5.8,73,0.00,CLR,SCT,0.00,WeatherDisplay:10.37,2013-10-13 12:28:00,
2013-10-13 05:33:00,43.0,34.9,27.40,North,0,5.8,5.8,73,0.00,CLR,SCT,0.00,WeatherDisplay:10.37,2013-10-13 12:33:00,
2013-10-13 05:38:00,43.0,34.9,27.40,North,0,5.8,5.8,73,0.00,CLR,SCT,0.00,WeatherDisplay:10.37,2013-10-13 12:38:00,
2013-10-13 05:43:00,43.0,34.9,27.40,North,0,5.8,5.8,73,0.00,CLR,SCT,0.00,WeatherDisplay:10.37,2013-10-13 12:43:00,
2013-10-13 05:48:00,43.0,34.9,27.40,North,0,5.8,5.8,73,0.00,CLR,SCT,0.00,WeatherDisplay:10.37,2013-10-13 12:48:00,
2013-10-13 05:53:00,43.0,34.9,27.40,North,0,5.8,5.8,73,0.00,CLR,SCT,0.00,WeatherDisplay:10.37,2013-10-13 12:53:00,
2013-10-13 05:58:00,43.0,34.9,27.40,North,0,5.8,5.8,73,0.00,CLR,SCT,0.00,WeatherDisplay:10.37,2013-10-13 12:58:00,
2013-10-13 06:03:00,43.0,34.9,27.40,North,0,5.8,5.8,73,0.00,CLR,SCT,0.00,WeatherDisplay:10.37,2013-10-13 13:03:00,
2013-10-13 06:08:00,43.0,34.9,27.40,North,0,5.8,5.8,73,0.00,CLR,SCT,0.00,WeatherDisplay:10.37,2013-10-13 13:08:00,
2013-10-13 06:13:00,43.0,34.9,27.40,North,0,5.8,0.0,73,0.00,CLR,SCT,0.00,WeatherDisplay:10.37,2013-10-13 13:13:00,
2013-10-13 06:18:00,43.0,34.9,27.40,East,101,2.3,0.0,73,0.00,CLR,SCT,0.00,WeatherDisplay:10.37,2013-10-13 13:18:00,
2013-10-13 06:23:00,43.0,34.9,27.40,East,101,2.3,0.0,73,0.00,CLR,SCT,0.00,WeatherDisplay:10.37,2013-10-13 13:23:00,
2013-10-13 06:28:00,43.0,34.9,27.40,East,101,2.3,0.0,73,0.00,CLR,SCT,0.00,WeatherDisplay:10.37,2013-10-13 13:28:00,
2013-10-13 06:33:00,43.0,34.9,27.40,East,101,2.3,0.0,73,0.00,CLR,SCT,0.00,WeatherDisplay:10.37,2013-10-13 13:33:00,
2013-10-13 06:38:00,43.0,34.9,27.40,East,101,2.3,0.0,73,0.00,CLR,SCT,0.00,WeatherDisplay:10.37,2013-10-13 13:38:00,
2013-10-13 06:43:00,43.0,34.9,27.40,North,4,5.4,5.4,73,0.00,CLR,SCT,0.00,WeatherDisplay:10.37,2013-10-13 13:43:00,
2013-10-13 06:48:00,43.0,34.9,27.40,West,261,3.5,4.9,73,0.00,CLR,SCT,0.00,WeatherDisplay:10.37,2013-10-13 13:48:00,
2013-10-13 06:53:00,43.0,34.9,27.40,North,0,5.8,5.8,73,0.00,CLR,SCT,0.00,WeatherDisplay:10.37,2013-10-13 13:53:00,
2013-10-13 06:58:00,43.0,34.9,27.40,North,0,5.8,5.8,73,0.00,CLR,SCT,0.00,WeatherDisplay:10.37,2013-10-13 13:58:00,
2013-10-13 07:03:00,43.0,34.9,27.40,North,0,5.8,5.8,73,0.00,CLR,SCT,0.00,WeatherDisplay:10.37,2013-10-13 14:03:00,
2013-10-13 07:08:00,43.0,34.9,27.40,North,0,5.8,5.8,73,0.00,CLR,SCT,0.00,WeatherDisplay:10.37,2013-10-13 14:08:00,
2013-10-13 07:13:00,43.0,34.9,27.40,North,0,5.8,5.8,73,0.00,CLR,SCT,0.00,WeatherDisplay:10.37,2013-10-13 14:13:00,
2013-10-13 07:18:00,43.0,34.9,27.40,North,0,5.8,5.8,73,0.00,CLR,SCT,0.00,WeatherDisplay:10.37,2013-10-13 14:18:00,
2013-10-13 07:23:00,43.0,34.9,27.40,North,0,3.5,3.6,73,0.00,CLR,SCT,0.00,WeatherDisplay:10.37,2013-10-13 14:23:00,
2013-10-13 07:28:00,43.0,34.9,27.40,North,0,3.5,3.6,73,0.00,CLR,SCT,0.00,WeatherDisplay:10.37,2013-10-13 14:28:00,
2013-10-13 07:33:00,43.0,34.9,27.40,North,0,3.5,3.6,73,0.00,CLR,SCT,0.00,WeatherDisplay:10.37,2013-10-13 14:33:00,
2013-10-13 07:38:00,43.0,34.9,27.40,South,180,49.5,134.1,73,0.00,,SCT,0.00,WeatherDisplay:10.37,2013-10-13 14:38:00,
2013-10-13 07:43:00,43.0,34.9,27.40,North,0,49.5,134.1,73,0.00,,SCT,0.00,WeatherDisplay:10.37,2013-10-13 14:43:00,
2013-10-13 07:48:00,43.0,34.9,27.40,North,0,49.5,134.1,73,0.00,,SCT,0.00,WeatherDisplay:10.37,2013-10-13 14:48:00,
2013-10-13 07:53:00,43.0,34.9,27.40,North,0,49.5,134.1,73,0.00,,SCT,0.00,WeatherDisplay:10.37,2013-10-13 14:53:00,
2013-10-13 07:58:00,43.0,34.9,27.40,North,0,49.5,134.1,73,0.00,,SCT,0.00,WeatherDisplay:10.37,2013-10-13 14:58:00,
2013-10-13 08:03:00,43.0,34.9,27.40,North,0,49.5,134.1,73,0.00,,SCT,0.00,WeatherDisplay:10.37,2013-10-13 15:03:00,
2013-10-13 08:08:00,43.0,34.9,27.40,North,0,49.5,134.1,73,0.00,,SCT,0.00,WeatherDisplay:10.37,2013-10-13 15:08:00,
2013-10-13 08:13:00,43.0,34.9,27.40,North,0,49.5,134.1,73,0.00,,SCT,0.00,WeatherDisplay:10.37,2013-10-13 15:13:00,
2013-10-13 08:18:00,43.0,34.9,27.40,North,0,49.5,134.1,73,0.00,,SCT,0.00,WeatherDisplay:10.37,2013-10-13 15:18:00,
2013-10-13 08:23:00,43.0,34.9,27.40,North,0,3.5,4.9,73,0.00,CLR,SCT,0.00,WeatherDisplay:10.37,2013-10-13 15:23:00,
2013-10-13 08:29:00,43.0,35.6,27.40,North,0,5.8,5.8,75,0.00,CLR,SCT,0.00,WeatherDisplay:10.37,2013-10-13 15:29:00,
2013-10-13 08:34:00,43.0,35.6,27.40,North,0,5.8,5.8,75,0.00,CLR,SCT,0.00,WeatherDisplay:10.37,2013-10-13 15:34:00,
2013-10-13 08:39:00,43.0,35.6,27.40,North,0,5.8,5.8,75,0.00,CLR,SCT,0.00,WeatherDisplay:10.37,2013-10-13 15:39:00,
2013-10-13 08:44:00,43.0,35.6,27.40,North,0,5.8,5.8,75,0.00,CLR,SCT,0.00,WeatherDisplay:10.37,2013-10-13 15:44:00,
2013-10-13 08:49:00,43.2,35.4,27.40,North,0,3.5,3.5,74,0.00,CLR,SCT,0.00,WeatherDisplay:10.37,2013-10-13 15:49:00,
2013-10-13 08:54:00,43.2,35.4,27.40,North,0,3.5,3.5,74,0.00,CLR,SCT,0.00,WeatherDisplay:10.37,2013-10-13 15:54:00,
2013-10-13 08:59:00,43.2,35.4,27.40,North,0,3.5,0.0,74,0.00,CLR,SCT,0.00,WeatherDisplay:10.37,2013-10-13 15:59:00,
2013-10-13 09:04:00,43.5,35.8,27.40,North,0,3.5,0.0,74,0.00,CLR,SCT,0.00,WeatherDisplay:10.37,2013-10-13 16:04:00,
2013-10-13 09:09:00,43.5,35.8,27.40,North,0,3.5,0.0,74,0.00,CLR,SCT,0.00,WeatherDisplay:10.37,2013-10-13 16:09:00,
2013-10-13 09:14:00,43.5,35.8,27.40,North,0,3.5,0.0,74,0.00,CLR,SCT,0.00,WeatherDisplay:10.37,2013-10-13 16:14:00,
2013-10-13 09:19:00,43.5,35.8,27.40,North,0,3.5,0.0,74,0.00,CLR,SCT,0.00,WeatherDisplay:10.37,2013-10-13 16:19:00,
2013-10-13 09:24:00,43.5,35.8,27.40,North,0,3.5,0.0,74,0.00,CLR,SCT,0.00,WeatherDisplay:10.37,2013-10-13 16:24:00,
2013-10-13 09:29:00,43.5,35.8,27.40,North,0,3.5,0.0,74,0.00,CLR,SCT,0.00,WeatherDisplay:10.37,2013-10-13 16:29:00,
2013-10-13 09:34:00,43.5,35.8,27.40,North,0,3.5,0.0,74,0.00,CLR,SCT,0.00,WeatherDisplay:10.37,2013-10-13 16:34:00,
2013-10-13 09:39:00,43.5,35.8,27.40,North,0,3.5,0.0,74,0.00,CLR,SCT,0.00,WeatherDisplay:10.37,2013-10-13 16:39:00,
2013-10-13 09:44:00,43.5,35.8,27.40,North,0,3.5,0.0,74,0.00,CLR,SCT,0.00,WeatherDisplay:10.37,2013-10-13 16:44:00,
2013-10-13 09:49:00,43.5,35.8,27.46,North,0,3.5,0.0,74,0.00,CLR,SCT,0.00,WeatherDisplay:10.37,2013-10-13 16:49:00,
2013-10-13 09:54:00,43.5,35.8,27.46,North,0,3.5,0.0,74,0.00,CLR,SCT,0.00,WeatherDisplay:10.37,2013-10-13 16:54:00,
2013-10-13 09:59:00,43.5,35.8,27.46,North,0,3.5,0.0,74,0.00,CLR,SCT,0.00,WeatherDisplay:10.37,2013-10-13 16:59:00,
2013-10-13 10:04:00,43.5,35.8,27.46,North,0,3.5,0.0,74,0.00,CLR,SCT,0.00,WeatherDisplay:10.37,2013-10-13 17:04:00,
2013-10-13 10:09:00,43.5,35.8,27.46,North,0,3.5,0.0,74,0.00,CLR,SCT,0.00,WeatherDisplay:10.37,2013-10-13 17:09:00,
2013-10-13 10:14:00,43.5,35.8,27.46,North,0,3.5,0.0,74,0.00,CLR,SCT,0.00,WeatherDisplay:10.37,2013-10-13 17:14:00,
2013-10-13 10:19:00,43.5,35.8,27.46,ESE,106,3.5,0.0,74,0.00,CLR,SCT,0.00,WeatherDisplay:10.37,2013-10-13 17:19:00,
2013-10-13 10:24:00,43.5,35.8,27.46,North,0,4.6,4.6,74,0.00,CLR,SCT,0.00,WeatherDisplay:10.37,2013-10-13 17:24:00,
2013-10-13 10:29:00,45.3,34.6,27.46,North,0,4.6,4.6,66,0.00,CLR,SCT,0.00,WeatherDisplay:10.37,2013-10-13 17:29:00,
2013-10-13 10:34:00,45.3,34.6,27.46,North,0,4.6,4.6,66,0.00,CLR,SCT,0.00,WeatherDisplay:10.37,2013-10-13 17:34:00,
2013-10-13 10:39:00,45.3,34.6,27.46,North,0,4.6,4.6,66,0.00,CLR,SCT,0.00,WeatherDisplay:10.37,2013-10-13 17:39:00,
2013-10-13 10:44:00,45.3,34.6,27.46,North,0,4.6,4.6,66,0.00,CLR,SCT,0.00,WeatherDisplay:10.37,2013-10-13 17:44:00,
2013-10-13 10:49:00,45.3,34.6,27.46,North,0,3.5,4.5,66,0.00,CLR,SCT,0.00,WeatherDisplay:10.37,2013-10-13 17:49:00,
2013-10-13 10:54:00,45.3,34.6,27.46,North,0,3.5,4.5,66,0.00,CLR,SCT,0.00,WeatherDisplay:10.37,2013-10-13 17:54:00,
2013-10-13 10:59:00,45.3,34.6,27.46,North,0,3.5,4.5,66,0.00,CLR,SCT,0.00,WeatherDisplay:10.37,2013-10-13 17:59:00,
2013-10-13 11:04:00,49.5,33.0,27.46,North,0,3.5,4.5,53,0.00,CLR,SCT,0.00,WeatherDisplay:10.37,2013-10-13 18:04:00,
2013-10-13 11:09:00,49.5,33.0,27.46,North,0,3.5,4.5,53,0.00,CLR,SCT,0.00,WeatherDisplay:10.37,2013-10-13 18:09:00,
2013-10-13 11:14:00,49.5,33.0,27.46,North,0,3.5,4.5,53,0.00,CLR,SCT,0.00,WeatherDisplay:10.37,2013-10-13 18:14:00,
2013-10-13 11:19:00,49.5,33.0,27.46,North,0,3.5,4.5,53,0.00,CLR,SCT,0.00,WeatherDisplay:10.37,2013-10-13 18:19:00,
2013-10-13 11:24:00,49.5,33.0,27.46,North,0,5.8,7.2,53,0.00,CLR,SCT,0.00,WeatherDisplay:10.37,2013-10-13 18:24:00,
2013-10-13 11:29:00,49.5,33.0,27.46,North,0,5.8,7.2,53,0.00,CLR,SCT,0.00,WeatherDisplay:10.37,2013-10-13 18:29:00,
2013-10-13 11:34:00,49.5,33.0,27.46,North,0,5.8,7.2,53,0.00,CLR,SCT,0.00,WeatherDisplay:10.37,2013-10-13 18:34:00,
2013-10-13 11:39:00,49.5,33.0,27.46,North,0,5.8,7.2,53,0.00,CLR,SCT,0.00,WeatherDisplay:10.37,2013-10-13 18:39:00,
2013-10-13 11:44:00,49.5,33.0,27.46,East,100,5.8,7.2,53,0.00,CLR,SCT,0.00,WeatherDisplay:10.37,2013-10-13 18:44:00,
2013-10-13 11:49:00,50.7,31.7,27.46,North,0,8.1,8.1,48,0.00,CLR,SCT,0.00,WeatherDisplay:10.37,2013-10-13 18:49:00,
2013-10-13 11:54:00,50.7,31.7,27.46,North,0,3.5,6.3,48,0.00,CLR,SCT,0.00,WeatherDisplay:10.37,2013-10-13 18:54:00,
2013-10-13 11:59:00,50.7,31.7,27.46,North,0,3.5,6.3,48,0.00,CLR,SCT,0.00,WeatherDisplay:10.37,2013-10-13 18:59:00,
2013-10-13 12:04:00,50.7,31.7,27.46,SE,129,3.5,0.0,48,0.00,CLR,SCT,0.00,WeatherDisplay:10.37,2013-10-13 19:04:00,
2013-10-13 12:09:00,50.7,31.7,27.46,ESE,116,0.0,3.6,48,0.00,CLR,SCT,0.00,WeatherDisplay:10.37,2013-10-13 19:09:00,
2013-10-13 12:14:00,54.5,30.6,27.46,North,0,0.0,3.6,40,0.00,CLR,SCT,0.00,WeatherDisplay:10.37,2013-10-13 19:14:00,
2013-10-13 12:19:00,54.9,30.3,27.46,North,0,0.0,3.6,39,0.00,CLR,SCT,0.00,WeatherDisplay:10.37,2013-10-13 19:19:00,
2013-10-13 12:24:00,55.0,30.5,27.46,North,0,0.0,2.7,39,0.00,CLR,SCT,0.00,WeatherDisplay:10.37,2013-10-13 19:24:00,
2013-10-13 12:29:00,55.0,30.5,27.46,North,0,5.8,5.8,39,0.00,CLR,SCT,0.00,WeatherDisplay:10.37,2013-10-13 19:29:00,
2013-10-13 12:34:00,55.0,30.5,27.46,WSW,253,5.8,5.8,39,0.00,CLR,SCT,0.00,WeatherDisplay:10.37,2013-10-13 19:34:00,
2013-10-13 12:39:00,55.0,30.5,27.46,WSW,253,5.8,5.8,39,0.00,CLR,SCT,0.00,WeatherDisplay:10.37,2013-10-13 19:39:00,
2013-10-13 12:44:00,55.0,30.5,27.46,WSW,253,5.8,5.8,39,0.00,CLR,SCT,0.00,WeatherDisplay:10.37,2013-10-13 19:44:00,
2013-10-13 12:49:00,55.0,30.5,27.46,North,0,5.8,5.8,39,0.00,CLR,SCT,0.00,WeatherDisplay:10.37,2013-10-13 19:49:00,
2013-10-13 12:54:00,57.7,30.9,27.46,North,0,3.5,0.0,36,0.00,CLR,SCT,0.00,WeatherDisplay:10.37,2013-10-13 19:54:00,
2013-10-13 12:59:00,57.7,30.9,27.46,North,0,3.5,0.0,36,0.00,CLR,SCT,0.00,WeatherDisplay:10.37,2013-10-13 19:59:00,
2013-10-13 13:04:00,56.3,30.3,27.46,North,0,5.8,8.0,37,0.00,CLR,SCT,0.00,WeatherDisplay:10.37,2013-10-13 20:04:00,
2013-10-13 13:09:00,56.3,30.3,27.46,North,0,5.8,8.0,37,0.00,CLR,SCT,0.00,WeatherDisplay:10.37,2013-10-13 20:09:00,
2013-10-13 13:14:00,56.3,30.3,27.46,North,0,5.8,8.0,37,0.00,CLR,SCT,0.00,WeatherDisplay:10.37,2013-10-13 20:14:00,
2013-10-13 13:19:00,56.3,30.3,27.46,North,0,5.8,8.0,37,0.00,CLR,SCT,0.00,WeatherDisplay:10.37,2013-10-13 20:19:00,
2013-10-13 13:24:00,56.3,30.3,27.46,North,0,5.8,8.0,37,0.00,CLR,SCT,0.00,WeatherDisplay:10.37,2013-10-13 20:24:00,
2013-10-13 13:29:00,56.3,30.3,27.46,NNE,32,5.8,5.8,37,0.00,CLR,SCT,0.00,WeatherDisplay:10.37,2013-10-13 20:29:00,
2013-10-13 13:34:00,56.3,30.3,27.46,NNE,32,2.3,2.7,37,0.00,CLR,SCT,0.00,WeatherDisplay:10.37,2013-10-13 20:34:00,
2013-10-13 13:39:00,56.3,30.3,27.46,NNE,32,2.3,2.7,37,0.00,CLR,SCT,0.00,WeatherDisplay:10.37,2013-10-13 20:39:00,
2013-10-13 13:44:00,56.3,30.3,27.46,NNE,32,2.3,2.7,37,0.00,CLR,SCT,0.00,WeatherDisplay:10.37,2013-10-13 20:44:00,
2013-10-13 13:49:00,56.3,30.3,27.46,NNE,32,2.3,2.7,37,0.00,CLR,SCT,0.00,WeatherDisplay:10.37,2013-10-13 20:49:00,
2013-10-13 13:54:00,56.3,30.3,27.46,North,0,0.0,4.9,37,0.00,CLR,SCT,0.00,WeatherDisplay:10.37,2013-10-13 20:54:00,
2013-10-13 13:59:00,56.3,30.3,27.46,North,0,0.0,4.9,37,0.00,CLR,SCT,0.00,WeatherDisplay:10.37,2013-10-13 20:59:00,
2013-10-13 14:04:00,56.3,30.3,27.46,North,0,0.0,4.9,37,0.00,CLR,SCT,0.00,WeatherDisplay:10.37,2013-10-13 21:04:00,
2013-10-13 14:09:00,56.3,30.3,27.46,North,0,5.8,5.8,37,0.00,CLR,SCT,0.00,WeatherDisplay:10.37,2013-10-13 21:09:00,
2013-10-13 14:14:00,56.3,30.3,27.46,North,0,5.8,5.8,37,0.00,CLR,SCT,0.00,WeatherDisplay:10.37,2013-10-13 21:14:00,
2013-10-13 14:19:00,56.3,30.3,27.46,North,0,5.8,5.8,37,0.00,CLR,SCT,0.00,WeatherDisplay:10.37,2013-10-13 21:19:00,
2013-10-13 14:24:00,56.3,30.3,27.46,North,0,5.8,5.8,37,0.00,CLR,SCT,0.00,WeatherDisplay:10.37,2013-10-13 21:24:00,
2013-10-13 14:29:00,56.3,30.3,27.46,North,0,5.8,5.8,37,0.00,CLR,SCT,0.00,WeatherDisplay:10.37,2013-10-13 21:29:00,
2013-10-13 14:35:00,56.3,30.3,27.46,North,0,5.8,6.7,37,0.00,CLR,SCT,0.00,WeatherDisplay:10.37,2013-10-13 21:35:00,
2013-10-13 14:40:00,56.3,30.3,27.46,North,0,6.9,7.6,37,0.00,,SCT,0.00,WeatherDisplay:10.37,2013-10-13 21:40:00,
2013-10-13 14:45:00,56.3,30.3,27.46,North,0,8.1,8.1,37,0.00,CLR,SCT,0.00,WeatherDisplay:10.37,2013-10-13 21:45:00,
2013-10-13 14:50:00,56.3,30.3,27.43,North,0,8.1,8.1,37,0.00,CLR,SCT,0.00,WeatherDisplay:10.37,2013-10-13 21:50:00,
2013-10-13 14:55:00,56.3,30.3,27.43,North,0,5.8,5.8,37,0.00,CLR,SCT,0.00,WeatherDisplay:10.37,2013-10-13 21:55:00,
2013-10-13 15:00:00,56.3,30.3,27.43,North,0,5.8,5.8,37,0.00,CLR,SCT,0.00,WeatherDisplay:10.37,2013-10-13 22:00:00,
2013-10-13 15:05:00,56.3,30.3,27.43,North,0,2.3,2.7,37,0.00,CLR,SCT,0.00,WeatherDisplay:10.37,2013-10-13 22:05:00,
2013-10-13 15:10:00,56.3,30.3,27.43,North,0,2.3,2.7,37,0.00,CLR,SCT,0.00,WeatherDisplay:10.37,2013-10-13 22:10:00,
2013-10-13 15:15:00,56.3,30.3,27.43,North,0,5.8,5.8,37,0.00,CLR,SCT,0.00,WeatherDisplay:10.37,2013-10-13 22:15:00,
2013-10-13 15:20:00,56.3,30.3,27.43,North,0,3.5,4.9,37,0.00,CLR,SCT,0.00,WeatherDisplay:10.37,2013-10-13 22:20:00,
2013-10-13 15:25:00,56.3,30.3,27.43,North,0,5.8,5.8,37,0.00,CLR,SCT,0.00,WeatherDisplay:10.37,2013-10-13 22:25:00,
2013-10-13 15:30:00,56.3,30.3,27.43,WSW,242,5.8,5.8,37,0.00,CLR,SCT,0.00,WeatherDisplay:10.37,2013-10-13 22:30:00,
2013-10-13 15:35:00,56.3,30.3,27.43,North,0,5.8,5.8,37,0.00,CLR,SCT,0.00,WeatherDisplay:10.37,2013-10-13 22:35:00,
2013-10-13 15:40:00,56.3,30.3,27.43,North,0,5.8,5.8,37,0.00,CLR,SCT,0.00,WeatherDisplay:10.37,2013-10-13 22:40:00,
2013-10-13 15:45:00,56.3,30.3,27.43,North,0,5.8,5.8,37,0.00,CLR,SCT,0.00,WeatherDisplay:10.37,2013-10-13 22:45:00,
2013-10-13 15:50:00,56.3,30.3,27.43,North,0,5.8,5.8,37,0.00,CLR,SCT,0.00,WeatherDisplay:10.37,2013-10-13 22:50:00,
2013-10-13 15:55:00,56.3,30.3,27.43,North,0,5.8,5.8,37,0.00,CLR,SCT,0.00,WeatherDisplay:10.37,2013-10-13 22:55:00,
2013-10-13 16:00:00,56.3,30.3,27.43,North,0,3.5,3.5,37,0.00,CLR,SCT,0.00,WeatherDisplay:10.37,2013-10-13 23:00:00,
2013-10-13 16:05:00,56.3,30.3,27.43,North,0,3.5,3.5,37,0.00,CLR,SCT,0.00,WeatherDisplay:10.37,2013-10-13 23:05:00,
2013-10-13 16:10:00,56.3,30.3,27.43,North,0,8.1,8.1,37,0.00,CLR,SCT,0.00,WeatherDisplay:10.37,2013-10-13 23:10:00,
2013-10-13 16:15:00,54.9,29.1,27.43,North,0,8.1,8.1,37,0.00,CLR,SCT,0.00,WeatherDisplay:10.37,2013-10-13 23:15:00,
2013-10-13 16:20:00,54.7,28.9,27.43,North,0,6.9,6.9,37,0.00,CLR,SCT,0.00,WeatherDisplay:10.37,2013-10-13 23:20:00,
2013-10-13 16:25:00,54.7,28.9,27.43,North,0,6.9,6.9,37,0.00,CLR,SCT,0.00,WeatherDisplay:10.37,2013-10-13 23:25:00,
2013-10-13 16:30:00,54.7,28.9,27.43,North,0,6.9,6.9,37,0.00,CLR,SCT,0.00,WeatherDisplay:10.37,2013-10-13 23:30:00,
2013-10-13 16:35:00,54.7,28.9,27.43,North,0,6.9,6.9,37,0.00,CLR,SCT,0.00,WeatherDisplay:10.37,2013-10-13 23:35:00,
2013-10-13 16:40:00,54.7,28.9,27.43,North,0,5.8,5.8,37,0.00,CLR,SCT,0.00,WeatherDisplay:10.37,2013-10-13 23:40:00,
2013-10-13 16:45:00,54.7,28.9,27.43,North,0,9.2,9.2,37,0.00,CLR,SCT,0.00,WeatherDisplay:10.37,2013-10-13 23:45:00,
2013-10-13 16:51:00,54.7,28.9,27.43,North,0,9.2,9.2,37,0.00,CLR,SCT,0.00,WeatherDisplay:10.37,2013-10-13 23:51:00,
2013-10-13 16:56:00,54.7,28.9,27.43,North,0,9.2,9.2,37,0.00,CLR,SCT,0.00,WeatherDisplay:10.37,2013-10-13 23:56:00,
2013-10-13 17:01:00,54.7,28.9,27.43,North,0,9.2,9.2,37,0.00,CLR,SCT,0.00,WeatherDisplay:10.37,2013-10-14 00:01:00,
2013-10-13 17:06:00,54.7,28.9,27.43,North,0,5.8,7.6,37,0.00,CLR,SCT,0.00,WeatherDisplay:10.37,2013-10-14 00:06:00,
2013-10-13 17:11:00,54.7,28.9,27.43,North,0,5.8,7.6,37,0.00,CLR,SCT,0.00,WeatherDisplay:10.37,2013-10-14 00:11:00,
2013-10-13 17:16:00,54.7,28.9,27.43,North,0,5.8,5.8,37,0.00,CLR,SCT,0.00,WeatherDisplay:10.37,2013-10-14 00:16:00,
2013-10-13 17:21:00,54.7,28.9,27.43,North,0,5.8,5.8,37,0.00,CLR,SCT,0.00,WeatherDisplay:10.37,2013-10-14 00:21:00,
2013-10-13 17:26:00,54.7,28.9,27.43,North,0,5.8,5.8,37,0.00,CLR,SCT,0.00,WeatherDisplay:10.37,2013-10-14 00:26:00,
2013-10-13 17:31:00,54.7,28.9,27.43,North,0,5.8,5.8,37,0.00,CLR,SCT,0.00,WeatherDisplay:10.37,2013-10-14 00:31:00,
2013-10-13 17:36:00,54.7,28.9,27.43,East,101,5.8,5.8,37,0.00,CLR,SCT,0.00,WeatherDisplay:10.37,2013-10-14 00:36:00,
2013-10-13 17:41:00,54.7,28.9,27.43,East,101,5.8,5.8,37,0.00,CLR,SCT,0.00,WeatherDisplay:10.37,2013-10-14 00:41:00,
2013-10-13 17:46:00,54.7,28.9,27.43,East,101,5.8,5.8,37,0.00,CLR,SCT,0.00,WeatherDisplay:10.37,2013-10-14 00:46:00,
2013-10-13 17:51:00,54.7,28.9,27.43,North,0,3.5,4.0,37,0.00,CLR,SCT,0.00,WeatherDisplay:10.37,2013-10-14 00:51:00,
2013-10-13 17:56:00,54.7,28.9,27.43,North,0,3.5,4.5,37,0.00,CLR,SCT,0.00,WeatherDisplay:10.37,2013-10-14 00:56:00,
2013-10-13 18:01:00,54.7,28.9,27.43,North,0,4.6,4.6,37,0.00,CLR,SCT,0.00,WeatherDisplay:10.37,2013-10-14 01:01:00,
2013-10-13 18:06:00,54.7,28.9,27.43,North,0,4.6,4.6,37,0.00,CLR,SCT,0.00,WeatherDisplay:10.37,2013-10-14 01:06:00,
2013-10-13 18:11:00,54.7,28.9,27.43,North,0,4.6,4.6,37,0.00,CLR,SCT,0.00,WeatherDisplay:10.37,2013-10-14 01:11:00,
2013-10-13 18:16:00,54.7,28.9,27.43,North,0,4.6,4.6,37,0.00,CLR,SCT,0.00,WeatherDisplay:10.37,2013-10-14 01:16:00,
2013-10-13 18:21:00,54.7,28.9,27.43,North,0,4.6,4.6,37,0.00,CLR,SCT,0.00,WeatherDisplay:10.37,2013-10-14 01:21:00,
2013-10-13 18:26:00,54.7,28.9,27.46,North,0,4.6,4.6,37,0.00,CLR,SCT,0.00,WeatherDisplay:10.37,2013-10-14 01:26:00,
2013-10-13 18:31:00,54.7,28.9,27.46,North,0,4.6,4.6,37,0.00,CLR,SCT,0.00,WeatherDisplay:10.37,2013-10-14 01:31:00,
2013-10-13 18:36:00,54.7,28.9,27.46,North,0,4.6,4.6,37,0.00,CLR,SCT,0.00,WeatherDisplay:10.37,2013-10-14 01:36:00,
2013-10-13 18:41:00,54.7,28.9,27.46,North,0,4.6,4.6,37,0.00,CLR,SCT,0.00,WeatherDisplay:10.37,2013-10-14 01:41:00,
2013-10-13 18:46:00,54.7,28.9,27.46,North,0,4.6,4.6,37,0.00,CLR,SCT,0.00,WeatherDisplay:10.37,2013-10-14 01:46:00,
2013-10-13 18:51:00,54.7,28.9,27.46,North,0,4.6,4.6,37,0.00,CLR,SCT,0.00,WeatherDisplay:10.37,2013-10-14 01:51:00,
2013-10-13 18:56:00,54.7,28.9,27.46,North,0,4.6,4.6,37,0.00,CLR,SCT,0.00,WeatherDisplay:10.37,2013-10-14 01:56:00,
2013-10-13 19:01:00,54.7,28.9,27.46,North,0,0.0,0.0,37,0.00,CLR,SCT,0.00,WeatherDisplay:10.37,2013-10-14 02:01:00,
2013-10-13 19:06:00,54.7,28.9,27.46,North,0,0.0,0.0,37,0.00,CLR,SCT,0.00,WeatherDisplay:10.37,2013-10-14 02:06:00,
2013-10-13 19:11:00,54.7,28.9,27.46,North,0,0.0,0.0,37,0.00,CLR,SCT,0.00,WeatherDisplay:10.37,2013-10-14 02:11:00,
2013-10-13 19:16:00,54.7,28.9,27.46,NNE,33,0.0,0.0,37,0.00,CLR,SCT,0.00,WeatherDisplay:10.37,2013-10-14 02:16:00,
2013-10-13 19:21:00,54.7,28.9,27.46,NNE,23,0.0,0.0,37,0.00,CLR,SCT,0.00,WeatherDisplay:10.37,2013-10-14 02:21:00,
2013-10-13 19:26:00,54.7,28.9,27.46,NNE,23,0.0,0.0,37,0.00,CLR,SCT,0.00,WeatherDisplay:10.37,2013-10-14 02:26:00,
2013-10-13 19:31:00,54.7,28.9,27.46,NNE,23,2.3,0.0,37,0.00,CLR,SCT,0.00,WeatherDisplay:10.37,2013-10-14 02:31:00,
2013-10-13 19:36:00,54.7,28.9,27.46,NNE,23,2.3,2.3,37,0.00,CLR,SCT,0.00,WeatherDisplay:10.37,2013-10-14 02:36:00,
2013-10-13 19:41:00,54.7,28.9,27.46,NNE,23,2.3,2.3,37,0.00,CLR,SCT,0.00,WeatherDisplay:10.37,2013-10-14 02:41:00,
2013-10-13 19:46:00,54.7,28.9,27.46,NNE,23,0.0,0.0,37,0.00,CLR,SCT,0.00,WeatherDisplay:10.37,2013-10-14 02:46:00,
2013-10-13 19:51:00,54.7,28.9,27.46,NNE,23,0.0,0.0,37,0.00,CLR,SCT,0.00,WeatherDisplay:10.37,2013-10-14 02:51:00,
2013-10-13 19:56:00,54.7,28.9,27.46,NNE,23,0.0,0.0,37,0.00,CLR,SCT,0.00,WeatherDisplay:10.37,2013-10-14 02:56:00,
2013-10-13 20:01:00,54.7,28.9,27.46,NNE,23,0.0,0.0,37,0.00,CLR,SCT,0.00,WeatherDisplay:10.37,2013-10-14 03:01:00,
2013-10-13 20:06:00,54.7,28.9,27.46,NNE,23,0.0,0.0,37,0.00,CLR,SCT,0.00,WeatherDisplay:10.37,2013-10-14 03:06:00,
2013-10-13 20:11:00,54.7,28.9,27.46,NNE,23,0.0,0.0,37,0.00,CLR,SCT,0.00,WeatherDisplay:10.37,2013-10-14 03:11:00,
2013-10-13 20:16:00,54.7,28.9,27.46,NNE,23,0.0,0.0,37,0.00,CLR,SCT,0.00,WeatherDisplay:10.37,2013-10-14 03:16:00,
2013-10-13 20:21:00,54.7,28.9,27.46,NNE,27,0.0,0.0,37,0.00,CLR,SCT,0.00,WeatherDisplay:10.37,2013-10-14 03:21:00,
2013-10-13 20:26:00,54.7,28.9,27.46,NNE,27,0.0,0.0,37,0.00,CLR,SCT,0.00,WeatherDisplay:10.37,2013-10-14 03:26:00,
2013-10-13 20:31:00,54.7,28.9,27.46,NNE,27,2.3,2.7,37,0.00,CLR,SCT,0.00,WeatherDisplay:10.37,2013-10-14 03:31:00,
2013-10-13 20:36:00,54.7,28.9,27.46,NNE,28,2.3,2.7,37,0.00,CLR,SCT,0.00,WeatherDisplay:10.37,2013-10-14 03:36:00,
2013-10-13 20:41:00,54.7,28.9,27.46,SSE,152,2.3,2.7,37,0.00,CLR,SCT,0.00,WeatherDisplay:10.37,2013-10-14 03:41:00,
2013-10-13 20:46:00,54.7,28.9,27.46,SSE,166,2.3,2.7,37,0.00,CLR,SCT,0.00,WeatherDisplay:10.37,2013-10-14 03:46:00,
2013-10-13 20:51:00,54.7,28.9,27.46,SSE,166,2.3,2.7,37,0.00,CLR,SCT,0.00,WeatherDisplay:10.37,2013-10-14 03:51:00,
2013-10-13 20:56:00,54.7,28.9,27.46,SSE,166,2.3,2.7,37,0.00,CLR,SCT,0.00,WeatherDisplay:10.37,2013-10-14 03:56:00,
2013-10-13 21:01:00,54.7,28.9,27.46,SSE,163,3.6,3.6,37,0.00,CLR,SCT,0.00,WeatherDisplay:10.37,2013-10-14 04:01:00,
2013-10-13 21:06:00,54.7,28.9,27.46,SSE,163,3.5,3.6,37,0.00,CLR,SCT,0.00,WeatherDisplay:10.37,2013-10-14 04:06:00,
2013-10-13 21:11:00,54.7,28.9,27.46,SSE,163,3.5,3.6,37,0.00,CLR,SCT,0.00,WeatherDisplay:10.37,2013-10-14 04:11:00,
2013-10-13 21:16:00,54.7,28.9,27.46,SSE,163,3.5,3.6,37,0.00,CLR,SCT,0.00,WeatherDisplay:10.37,2013-10-14 04:16:00,
2013-10-13 21:21:00,54.7,28.9,27.46,SSE,163,3.5,3.6,37,0.00,CLR,SCT,0.00,WeatherDisplay:10.37,2013-10-14 04:21:00,
2013-10-13 21:26:00,54.7,28.9,27.46,SSE,163,3.5,3.6,37,0.00,CLR,SCT,0.00,WeatherDisplay:10.37,2013-10-14 04:26:00,
2013-10-13 21:31:00,54.7,28.9,27.46,SSE,163,3.5,3.6,37,0.00,CLR,SCT,0.00,WeatherDisplay:10.37,2013-10-14 04:31:00,
2013-10-13 21:36:00,54.7,28.9,27.46,SSE,163,3.5,3.6,37,0.00,CLR,SCT,0.00,WeatherDisplay:10.37,2013-10-14 04:36:00,
2013-10-13 21:41:00,54.7,28.9,27.46,SSE,165,3.5,3.6,37,0.00,CLR,SCT,0.00,WeatherDisplay:10.37,2013-10-14 04:41:00,
2013-10-13 21:46:00,54.7,28.9,27.46,SSE,165,3.5,3.6,37,0.00,CLR,SCT,0.00,WeatherDisplay:10.37,2013-10-14 04:46:00,
2013-10-13 21:51:00,54.7,28.9,27.46,SSE,165,3.5,3.6,37,0.00,CLR,SCT,0.00,WeatherDisplay:10.37,2013-10-14 04:51:00,
2013-10-13 21:56:00,54.7,28.9,27.46,SSE,165,3.5,3.5,37,0.00,CLR,SCT,0.00,WeatherDisplay:10.37,2013-10-14 04:56:00,
2013-10-13 22:01:00,54.7,28.9,27.46,SE,146,4.6,4.6,37,0.00,CLR,SCT,0.00,WeatherDisplay:10.37,2013-10-14 05:01:00,
2013-10-13 22:06:00,54.7,28.9,27.46,SE,146,4.6,4.6,37,0.00,CLR,SCT,0.00,WeatherDisplay:10.37,2013-10-14 05:06:00,
2013-10-13 22:11:00,54.7,28.9,27.46,SE,146,4.6,4.6,37,0.00,CLR,SCT,0.00,WeatherDisplay:10.37,2013-10-14 05:11:00,
2013-10-13 22:16:00,54.7,28.9,27.46,SE,146,4.6,4.6,37,0.00,CLR,SCT,0.00,WeatherDisplay:10.37,2013-10-14 05:16:00,
2013-10-13 22:21:00,54.7,28.9,27.46,SE,131,4.6,4.6,37,0.00,CLR,SCT,0.00,WeatherDisplay:10.37,2013-10-14 05:21:00,
2013-10-13 22:26:00,54.7,28.9,27.46,SE,141,2.3,3.1,37,0.00,CLR,SCT,0.00,WeatherDisplay:10.37,2013-10-14 05:26:00,
2013-10-13 22:31:00,54.7,28.9,27.46,NE,50,3.5,0.0,37,0.00,CLR,SCT,0.00,WeatherDisplay:10.37,2013-10-14 05:31:00,
2013-10-13 22:36:00,54.7,28.9,27.46,NE,50,0.0,0.0,37,0.00,CLR,SCT,0.00,WeatherDisplay:10.37,2013-10-14 05:36:00,
2013-10-13 22:41:00,54.7,28.9,27.46,SE,131,3.5,3.5,37,0.00,CLR,SCT,0.00,WeatherDisplay:10.37,2013-10-14 05:41:00,
2013-10-13 22:46:00,54.7,28.9,27.49,South,188,3.5,3.5,37,0.00,CLR,SCT,0.00,WeatherDisplay:10.37,2013-10-14 05:46:00,
2013-10-13 22:51:00,54.7,28.9,27.49,South,188,3.5,3.5,37,0.00,CLR,SCT,0.00,WeatherDisplay:10.37,2013-10-14 05:51:00,
2013-10-13 22:56:00,54.7,28.9,27.49,South,188,3.5,3.5,37,0.00,CLR,SCT,0.00,WeatherDisplay:10.37,2013-10-14 05:56:00,
2013-10-13 23:01:00,54.7,28.9,27.49,South,178,3.5,3.5,37,0.00,CLR,SCT,0.00,WeatherDisplay:10.37,2013-10-14 06:01:00,
2013-10-13 23:06:00,54.7,28.9,27.49,South,178,3.5,3.5,37,0.00,CLR,SCT,0.00,WeatherDisplay:10.37,2013-10-14 06:06:00,
2013-10-13 23:11:00,35.1,26.9,27.49,South,178,3.5,3.5,72,0.00,CLR,SCT,0.00,WeatherDisplay:10.37,2013-10-14 06:11:00,
2013-10-13 23:16:00,35.1,26.9,27.52,South,183,3.5,3.5,72,0.00,CLR,SCT,0.00,WeatherDisplay:10.37,2013-10-14 06:16:00,
2013-10-13 23:21:00,35.1,26.9,27.52,South,183,3.5,3.5,72,0.00,CLR,SCT,0.00,WeatherDisplay:10.37,2013-10-14 06:21:00,
2013-10-13 23:26:00,35.1,26.9,27.52,South,183,3.5,3.5,72,0.00,CLR,SCT,0.00,WeatherDisplay:10.37,2013-10-14 06:26:00,
2013-10-13 23:31:00,35.1,26.9,27.52,WSW,240,3.5,3.5,72,0.00,CLR,SCT,0.00,WeatherDisplay:10.37,2013-10-14 06:31:00,
2013-10-13 23:36:00,35.1,26.9,27.52,North,11,3.5,3.5,72,0.00,CLR,SCT,0.00,WeatherDisplay:10.37,2013-10-14 06:36:00,
2013-10-13 23:42:00,35.1,26.9,27.52,North,11,3.5,3.5,72,0.00,CLR,SCT,0.00,WeatherDisplay:10.37,2013-10-14 06:42:00,
2013-10-13 23:47:00,35.1,26.9,27.52,North,11,3.5,3.5,72,0.00,CLR,SCT,0.00,WeatherDisplay:10.37,2013-10-14 06:47:00,
2013-10-13 23:52:00,35.1,26.9,27.52,East,100,3.5,3.5,72,0.00,CLR,SCT,0.00,WeatherDisplay:10.37,2013-10-14 06:52:00,
2013-10-13 23:57:00,35.1,26.9,27.52,North,0,3.5,3.5,72,0.00,CLR,SCT,0.00,WeatherDisplay:10.37,2013-10-14 06:57:00,